Time;durP1;ratioP1;P1;durP2;ratioP2;P2;SDS_P1;SDS_P2;PMS_P1;PMS_P2;Temp;Humidity;BMP_temperature;BMP_pressure;BME280_temperature;BME280_humidity;BME280_pressure;Samples;Min_cycle;Max_cycle;Signal;HPM_P1;HPM_P2
2021/10/07 00:01:33;;;;;;;2.85;2.03;;;;;;;6.66;100.00;102685.88;5016474;28;20676;-77
2021/10/07 00:03:59;;;;;;;3.72;1.70;;;8.10;99.90;;;6.48;100.00;102665.75;5039851;28;20061;-77
2021/10/07 00:06:33;;;;;;;1.95;1.55;;;8.00;99.90;;;6.32;100.00;102643.94;5039663;28;20420;-78
2021/10/07 00:08:59;;;;;;;2.08;1.30;;;7.90;99.90;;;6.25;100.00;102652.66;5038370;28;20142;-77
2021/10/07 00:11:25;;;;;;;30.00;1.70;;;7.70;99.90;;;5.88;100.00;102603.69;5023095;28;20061;-77
2021/10/07 00:13:51;;;;;;;1.10;1.00;;;7.40;99.90;;;5.62;100.00;102571.38;5031208;28;20410;-77
2021/10/07 00:16:17;;;;;;;66.50;2.75;;;7.30;99.90;;;5.57;100.00;102557.41;5023731;28;20062;-77
2021/10/07 00:18:43;;;;;;;3.30;2.20;;;7.30;99.90;;;5.64;100.00;102564.44;5014388;28;20055;-77
2021/10/07 00:21:11;;;;;;;5.97;2.45;;;7.30;99.90;;;5.68;100.00;102559.22;4981000;28;20055;-78
2021/10/07 00:23:51;;;;;;;3.58;2.58;;;7.30;99.90;;;5.66;100.00;102554.81;5006045;28;20072;-77
2021/10/07 00:26:17;;;;;;;3.25;1.98;;;7.30;99.90;;;5.65;100.00;102547.88;5039158;28;20086;-77
2021/10/07 00:28:43;;;;;;;5.57;2.50;;;7.20;99.90;;;5.63;100.00;102547.84;5021730;28;20069;-77
2021/10/07 00:31:16;;;;;;;11.13;2.90;;;7.20;99.90;;;5.64;100.00;102540.91;5002346;28;20051;-77
2021/10/07 00:39:08;;;;;;;7.18;3.90;;;7.30;99.90;;;5.76;100.00;102551.38;5033188;28;20072;-77
2021/10/07 00:41:43;;;;;;;8.65;4.85;;;7.40;99.90;;;5.77;100.00;102545.28;5030774;28;20072;-77
2021/10/07 00:44:11;;;;;;;16.30;3.92;;;7.40;99.90;;;5.83;100.00;102544.41;5028399;28;20059;-77
2021/10/07 00:46:58;;;;;;;9.38;4.47;;;7.40;99.90;;;5.93;100.00;102554.91;5022453;28;20052;-77
2021/10/07 00:49:38;;;;;;;6.78;4.35;;;7.50;99.90;;;6.03;100.00;102553.22;4990271;28;20051;-77
2021/10/07 00:52:06;;;;;;;16.42;5.38;;;7.60;99.90;;;6.07;100.00;102567.16;4990739;28;20078;-78
2021/10/07 00:54:33;;;;;;;15.70;4.78;;;7.60;99.90;;;6.06;100.00;102571.50;4986535;28;20057;-78
2021/10/07 00:57:04;;;;;;;9.88;4.35;;;7.70;99.90;;;6.03;100.00;102563.69;5007728;28;20482;-77
2021/10/07 00:59:33;;;;;;;9.13;4.75;;;7.60;99.90;;;6.00;100.00;102570.63;4988512;28;20102;-78
2021/10/07 01:02:07;;;;;;;7.70;4.47;;;7.60;99.90;;;6.06;100.00;102581.97;5055602;28;20064;-77
2021/10/07 01:04:35;;;;;;;10.05;4.57;;;7.60;99.90;;;6.12;100.00;102584.59;5004213;28;20079;-78
2021/10/07 01:07:07;;;;;;;8.05;4.90;;;7.60;99.90;;;6.10;100.00;102581.13;4977288;28;20076;-78
2021/10/07 01:09:34;;;;;;;7.40;4.53;;;7.60;99.90;;;6.07;100.00;102581.13;5024608;28;20060;-78
2021/10/07 01:12:02;;;;;;;29.52;4.82;;;7.60;99.90;;;5.94;100.00;102571.47;5020278;28;20114;-78
2021/10/07 01:14:44;;;;;;;12.02;4.53;;;7.50;99.90;;;5.87;100.00;102567.09;5014651;28;20053;-78
2021/10/07 01:17:29;;;;;;;7.32;4.20;;;7.40;99.90;;;5.80;100.00;102660.31;5030453;28;20060;-78
2021/10/07 01:19:59;;;;;;;7.90;4.22;;;7.40;99.90;;;5.85;100.00;102614.16;5024015;28;20417;-78
2021/10/07 01:22:29;;;;;;;7.88;4.20;;;7.40;99.90;;;5.91;100.00;102608.06;4994762;28;20108;-77
2021/10/07 01:24:59;;;;;;;5.95;3.78;;;7.50;99.90;;;5.92;100.00;102589.78;5008698;28;20056;-78
2021/10/07 01:27:29;;;;;;;5.78;3.58;;;7.50;99.90;;;5.94;100.00;102579.31;4986108;28;20070;-78
2021/10/07 01:30:07;;;;;;;9.52;3.30;;;7.50;99.90;;;5.89;100.00;102571.44;4955359;28;20180;-78
2021/10/07 01:32:38;;;;;;;5.78;3.33;;;7.50;99.90;;;5.86;100.00;102560.13;5009463;28;20421;-78
2021/10/07 01:35:09;;;;;;;9.18;3.58;;;7.40;99.90;;;5.81;100.00;102567.06;5006036;28;20083;-78
2021/10/07 01:37:36;;;;;;;16.38;3.25;;;7.40;99.90;;;5.72;100.00;102565.31;4990179;28;20080;-78
2021/10/07 01:40:07;;;;;;;125.28;4.40;;;7.20;99.90;;;5.56;100.00;102559.16;4971078;28;20081;-78
2021/10/07 01:42:33;;;;;;;7.50;2.92;;;7.10;99.90;;;5.49;100.00;102550.44;4985661;28;20102;-78
2021/10/07 01:44:59;;;;;;;8.20;3.10;;;7.10;99.90;;;5.43;100.00;102560.84;4993631;28;20059;-78
2021/10/07 01:47:25;;;;;;;7.03;3.22;;;7.10;99.90;;;5.39;100.00;102547.78;4975136;28;20095;-78
2021/10/07 01:49:51;;;;;;;9.30;3.78;;;7.00;99.90;;;5.38;100.00;102554.75;4997069;28;20056;-78
2021/10/07 01:52:22;;;;;;;3.55;2.80;;;7.00;99.90;;;5.38;100.00;102562.59;5008500;28;20052;-78
2021/10/07 01:54:48;;;;;;;4.80;3.00;;;7.00;99.90;;;5.40;100.00;102560.84;5004245;28;20086;-78
2021/10/07 01:57:14;;;;;;;4.18;2.83;;;7.00;99.90;;;5.40;100.00;102570.41;5023221;28;20186;-78
2021/10/07 01:59:40;;;;;;;4.80;3.15;;;7.00;99.90;;;5.39;100.00;102569.53;5014216;28;20472;-78
2021/10/07 02:02:06;;;;;;;27.10;3.10;;;7.00;99.90;;;5.29;100.00;102562.50;5035774;28;20104;-78
2021/10/07 02:04:32;;;;;;;25.38;2.35;;;6.90;99.90;;;5.10;100.00;102545.91;5014968;28;20059;-78
2021/10/07 02:06:58;;;;;;;5.13;3.28;;;6.80;99.90;;;4.99;100.00;102542.34;5039296;28;20056;-78
2021/10/07 02:09:24;;;;;;;13.23;3.80;;;6.70;99.90;;;4.94;100.00;102544.94;5014839;28;20092;-78
2021/10/07 02:11:51;;;;;;;5.57;2.97;;;6.70;99.90;;;4.92;100.00;102546.66;4979750;28;20056;-78
2021/10/07 02:14:17;;;;;;;6.03;3.25;;;6.60;99.90;;;4.89;100.00;102547.50;5023330;28;20079;-78
2021/10/07 02:16:43;;;;;;;6.15;3.17;;;6.60;99.90;;;4.92;100.00;102554.50;5021042;28;20068;-78
2021/10/07 02:19:09;;;;;;;5.18;3.42;;;6.60;99.90;;;4.93;100.00;102564.09;4975311;28;20598;-78
2021/10/07 02:21:35;;;;;;;6.18;3.25;;;6.60;99.90;;;4.92;100.00;102564.94;5032231;28;20093;-79
2021/10/07 02:24:01;;;;;;;10.88;3.55;;;6.50;99.90;;;4.91;100.00;102573.63;5039437;28;20047;-78
2021/10/07 02:26:31;;;;;;;7.70;3.90;;;6.60;99.90;;;4.99;100.00;102587.63;5021163;28;20055;-78
2021/10/07 02:28:57;;;;;;;123.80;4.97;;;6.70;99.90;;;5.06;100.00;102594.63;5031719;28;20154;-78
2021/10/07 02:31:23;;;;;;;9.38;4.55;;;6.70;99.90;;;5.12;100.00;102585.97;5023152;28;20054;-78
2021/10/07 02:33:49;;;;;;;9.77;4.05;;;6.80;99.90;;;5.19;100.00;102602.53;4993785;28;20062;-78
2021/10/07 02:36:16;;;;;;;11.75;4.03;;;6.80;99.90;;;5.19;100.00;102615.59;5030890;28;20062;-78
2021/10/07 02:38:42;;;;;;;7.32;4.20;;;6.80;99.90;;;5.11;100.00;102592.91;5022638;28;20443;-78
2021/10/07 02:41:10;;;;;;;6.97;3.58;;;6.70;99.90;;;4.99;100.00;102624.19;5013623;28;20071;-78
2021/10/07 02:43:36;;;;;;;5.28;3.40;;;6.60;99.90;;;4.91;100.00;102611.06;5021055;28;20071;-78
2021/10/07 02:46:02;;;;;;;10.07;4.20;;;6.50;99.90;;;4.84;100.00;102606.66;4967937;28;20106;-78
2021/10/07 02:48:28;;;;;;;68.95;4.18;;;6.50;99.90;;;4.84;100.00;102606.66;5006635;28;20422;-78
2021/10/07 02:50:54;;;;;;;6.55;3.90;;;6.50;99.90;;;4.92;100.00;102625.88;5018946;28;20065;-78
2021/10/07 02:53:20;;;;;;;7.32;4.55;;;6.60;99.90;;;5.08;100.00;102645.13;5001018;28;20075;-78
2021/10/07 02:55:47;;;;;;;8.60;4.88;;;6.80;99.90;;;5.26;100.00;102661.78;5010776;28;20056;-78
2021/10/07 02:58:15;;;;;;;12.75;4.28;;;6.80;99.90;;;5.20;100.00;102646.06;4982495;28;20601;-78
2021/10/07 03:00:41;;;;;;;19.40;4.13;;;6.80;99.90;;;5.24;100.00;102655.66;4981708;28;20105;-78
2021/10/07 03:03:07;;;;;;;44.72;4.75;;;6.90;99.90;;;5.27;100.00;102679.19;4984448;28;20078;-78
2021/10/07 03:05:34;;;;;;;54.85;4.38;;;;;;;5.28;100.00;102678.31;5015920;28;20059;-78
2021/10/07 03:08:01;;;;;;;46.45;5.00;;;6.90;99.90;;;5.26;100.00;102691.38;5040520;28;20113;-78
2021/10/07 03:10:29;;;;;;;8.75;3.63;;;6.90;99.90;;;5.28;100.00;102696.63;5032560;28;20081;-78
2021/10/07 03:12:56;;;;;;;30.80;3.85;;;6.80;99.90;;;5.23;100.00;102695.72;5026052;28;20053;-78
2021/10/07 03:15:22;;;;;;;16.52;3.38;;;6.80;99.90;;;5.18;100.00;102700.00;5024004;28;20062;-78
2021/10/07 03:17:48;;;;;;;8.25;4.13;;;6.80;99.90;;;5.19;100.00;102697.41;4998101;28;20147;-78
2021/10/07 03:20:15;;;;;;;9.32;5.18;;;6.90;99.90;;;5.33;100.00;102707.97;5015797;28;20164;-78
2021/10/07 03:22:41;;;;;;;7.25;4.07;;;6.90;99.90;;;5.34;100.00;102694.03;5034593;28;20064;-78
2021/10/07 03:25:08;;;;;;;9.50;5.05;;;6.90;99.90;;;5.39;100.00;102710.63;5023777;28;20063;-78
2021/10/07 03:27:35;;;;;;;8.95;5.10;;;;;;;5.39;100.00;102710.63;4995849;28;20053;-78
2021/10/07 03:30:06;;;;;;;12.23;4.22;;;7.00;99.90;;;5.32;100.00;102728.00;5006295;28;20068;-78
2021/10/07 03:32:33;;;;;;;50.72;3.10;;;6.80;99.90;;;5.03;100.00;102698.16;5003932;28;20061;-78
2021/10/07 03:34:59;;;;;;;6.78;2.95;;;6.50;99.90;;;4.66;100.00;102676.97;5006179;28;20099;-78
2021/10/07 03:37:25;;;;;;;4.65;2.17;;;6.30;99.90;;;4.47;100.00;102678.50;5012353;28;20090;-78
2021/10/07 03:39:51;;;;;;;32.95;1.77;;;6.10;99.90;;;4.21;100.00;102668.72;4989269;28;20068;-78
2021/10/07 03:42:17;;;;;;;2.53;1.77;;;5.90;99.90;;;4.06;100.00;102660.69;4979491;28;20345;-78
2021/10/07 03:44:43;;;;;;;3.50;2.30;;;5.70;99.90;;;3.99;100.00;102658.88;4988289;28;20624;-78
2021/10/07 03:47:09;;;;;;;4.75;1.77;;;5.70;99.90;;;3.98;100.00;102685.81;5004420;28;20087;-78
2021/10/07 03:49:36;;;;;;;6.22;4.10;;;5.80;99.90;;;4.15;100.00;102707.75;4965604;28;20068;-78
2021/10/07 03:52:02;;;;;;;11.75;3.83;;;5.90;99.90;;;4.31;100.00;102721.81;5000921;28;20068;-78
2021/10/07 03:54:28;;;;;;;7.07;3.67;;;6.00;99.90;;;4.37;100.00;102758.41;4993174;28;20093;-78
2021/10/07 03:56:56;;;;;;;6.53;4.13;;;6.00;99.90;;;4.39;100.00;102742.78;5003299;28;20057;-78
2021/10/07 03:59:22;;;;;;;8.23;3.40;;;6.00;99.90;;;4.29;100.00;102740.06;4977150;28;20077;-78
2021/10/07 04:01:48;;;;;;;26.55;1.80;;;5.90;99.90;;;4.02;100.00;102739.75;5022069;28;20147;-78
2021/10/07 04:04:14;;;;;;;29.70;2.13;;;5.70;99.90;;;3.85;100.00;102724.75;4979381;28;20506;-78
2021/10/07 04:06:40;;;;;;;22.27;1.50;;;5.60;99.90;;;3.80;100.00;102768.13;5037165;28;20057;-78
2021/10/07 04:09:12;;;;;;;14.80;1.40;;;5.50;99.90;;;3.79;100.00;102757.66;5016430;28;20077;-78
2021/10/07 04:11:38;;;;;;;5.30;2.83;;;5.60;99.90;;;3.84;100.00;102879.34;5032412;28;20526;-78
2021/10/07 04:14:04;;;;;;;6.88;3.60;;;5.60;99.90;;;4.07;100.00;102850.16;5023060;28;20061;-78
2021/10/07 04:16:30;;;;;;;6.10;3.55;;;5.70;99.90;;;4.16;100.00;102841.59;5010511;28;20064;-78
2021/10/07 04:18:56;;;;;;;5.00;3.22;;;5.80;99.90;;;4.13;100.00;102824.19;4997322;28;20400;-78
2021/10/07 04:21:24;;;;;;;5.70;3.25;;;5.80;99.90;;;4.11;100.00;102821.53;4987087;28;20078;-78
2021/10/07 04:23:53;;;;;;;3.72;2.38;;;5.80;99.90;;;4.17;100.00;102838.13;4945821;28;20068;-78
2021/10/07 04:26:19;;;;;;;7.28;3.20;;;5.80;99.90;;;4.18;100.00;102835.53;4952631;28;20066;-78
2021/10/07 04:28:45;;;;;;;6.43;1.98;;;5.80;99.90;;;4.15;100.00;102843.34;4977166;28;20065;-78
2021/10/07 04:31:11;;;;;;;5.13;1.60;;;5.80;99.90;;;4.15;100.00;102832.91;5012273;28;20317;-78
2021/10/07 04:33:40;;;;;;;2.60;1.67;;;5.90;99.90;;;4.18;100.00;102848.56;5019138;28;20146;-78
2021/10/07 04:36:08;;;;;;;99.05;3.85;;;5.80;99.90;;;4.13;100.00;102865.03;5004372;28;20545;-79
2021/10/07 04:38:34;;;;;;;211.35;5.78;;;5.70;99.90;;;4.08;100.00;102865.84;4985707;28;20129;-78
2021/10/07 04:41:01;;;;;;;23.73;2.40;;;5.70;99.90;;;4.15;100.00;102882.44;4999018;28;20127;-78
2021/10/07 04:43:27;;;;;;;24.45;3.15;;;5.80;99.90;;;4.11;100.00;102876.28;5024286;28;20060;-79
2021/10/07 04:45:53;;;;;;;102.05;3.85;;;5.80;99.90;;;4.08;100.00;102873.66;4997796;28;20630;-78
2021/10/07 04:48:21;;;;;;;42.50;3.17;;;5.70;99.90;;;4.09;100.00;102884.97;4983370;28;20070;-78
2021/10/07 04:50:47;;;;;;;69.75;3.28;;;5.80;99.90;;;4.17;100.00;102899.00;4989331;28;20096;-78
2021/10/07 04:53:13;;;;;;;31.35;3.20;;;5.90;99.90;;;4.23;100.00;102898.19;5002936;28;20058;-78
2021/10/07 04:55:39;;;;;;;40.65;3.45;;;5.90;99.90;;;4.24;100.00;102908.66;5004971;28;20072;-78
2021/10/07 04:58:05;;;;;;;51.78;3.60;;;5.90;99.90;;;4.21;100.00;102906.00;4993481;28;20063;-78
2021/10/07 05:00:31;;;;;;;10.65;2.90;;;5.90;99.90;;;4.16;100.00;102912.00;4997038;28;20080;-78
2021/10/07 05:02:57;;;;;;;9.45;4.05;;;5.80;99.90;;;4.05;100.00;102912.69;5014407;28;20083;-78
2021/10/07 05:05:24;;;;;;;6.35;3.30;;;5.80;99.90;;;3.98;100.00;102938.66;5001502;28;20077;-80
2021/10/07 05:07:50;;;;;;;7.93;3.00;;;;;;;3.82;100.00;102917.56;4958407;28;20059;-78
2021/10/07 05:10:16;;;;;;;5.78;3.40;;;5.50;99.90;;;3.73;100.00;102925.22;4996139;28;20072;-78
2021/10/07 05:12:43;;;;;;;6.70;2.90;;;5.50;99.90;;;3.70;100.00;102906.94;5020291;28;20056;-78
2021/10/07 05:15:10;;;;;;;4.22;2.50;;;5.40;99.90;;;3.66;100.00;102924.22;4971447;28;20086;-79
2021/10/07 05:17:37;;;;;;;5.10;2.42;;;5.40;99.90;;;3.59;100.00;102944.97;4978167;28;20131;-78
2021/10/07 05:20:05;;;;;;;30.33;1.95;;;5.30;99.90;;;3.40;100.00;102921.16;5018751;28;20442;-79
2021/10/07 05:22:31;;;;;;;6.60;3.88;;;5.20;99.90;;;3.45;100.00;102966.41;5000022;28;20095;-78
2021/10/07 05:24:57;;;;;;;36.20;3.40;;;5.30;99.90;;;3.58;100.00;102979.66;4988300;28;20067;-78
2021/10/07 05:27:23;;;;;;;9.32;3.35;;;5.40;99.90;;;3.66;100.00;102978.94;5016971;28;20083;-79
2021/10/07 05:29:49;;;;;;;40.38;3.65;;;5.50;99.90;;;3.77;100.00;102975.66;4987804;28;20077;-78
2021/10/07 05:32:15;;;;;;;9.27;3.10;;;5.60;99.90;;;3.87;100.00;102998.44;4981220;28;20059;-78
2021/10/07 05:34:41;;;;;;;12.45;4.60;;;5.60;99.90;;;3.97;100.00;102994.25;4992000;28;20516;-78
2021/10/07 05:37:12;;;;;;;10.23;4.35;;;5.80;99.90;;;4.26;100.00;103045.16;4966006;28;20063;-79
2021/10/07 05:39:38;;;;;;;9.75;5.05;;;6.10;99.90;;;4.53;100.00;103046.44;4960061;28;20084;-78
2021/10/07 05:42:05;;;;;;;10.70;6.13;;;6.20;99.90;;;4.68;100.00;103043.19;4994135;28;20115;-79
2021/10/07 05:44:31;;;;;;;7.30;4.38;;;6.30;99.90;;;4.70;100.00;103063.25;4979625;28;20123;-78
2021/10/07 05:46:57;;;;;;;8.50;4.47;;;6.30;99.90;;;4.60;100.00;103058.75;5004162;28;20057;-78
2021/10/07 05:49:30;;;;;;;235.02;5.93;;;6.30;99.90;;;4.51;100.00;103028.19;4975065;28;20463;-78
2021/10/07 05:51:56;;;;;;;68.72;4.13;;;6.20;99.90;;;4.28;100.00;103006.94;4980528;28;20082;-78
2021/10/07 05:54:23;;;;;;;7.82;3.90;;;6.00;99.90;;;4.19;100.00;103005.91;5018625;28;20584;-78
2021/10/07 05:56:49;;;;;;;27.52;4.47;;;6.00;99.90;;;4.19;100.00;103005.91;5007227;28;20060;-78
2021/10/07 05:59:16;;;;;;;20.10;3.78;;;5.90;99.90;;;4.19;100.00;103085.03;5053189;28;20073;-79
2021/10/07 06:01:42;;;;;;;21.77;4.25;;;6.00;99.90;;;4.23;100.00;103071.22;5019183;28;20424;-79
2021/10/07 06:04:08;;;;;;;7.88;4.53;;;6.10;99.90;;;4.45;100.00;103084.56;5017773;28;20520;-78
2021/10/07 06:06:35;;;;;;;19.23;5.10;;;6.30;99.90;;;4.88;100.00;103140.97;4993581;28;20059;-79
2021/10/07 06:09:01;;;;;;;10.48;4.00;;;6.60;99.90;;;5.11;100.00;103164.81;4990918;28;20122;-79
2021/10/07 06:11:27;;;;;;;6.68;4.63;;;6.90;99.90;;;5.64;100.00;103192.59;4962135;28;20568;-78
2021/10/07 06:13:53;;;;;;;16.10;5.35;;;7.60;99.90;;;6.90;100.00;103293.47;4975193;28;20057;-79
2021/10/07 06:16:19;;;;;;;14.00;5.05;;;8.90;99.90;;;8.13;100.00;103343.38;5010829;28;20081;-79
2021/10/07 06:18:48;;;;;;;11.75;4.75;;;9.80;99.90;;;8.97;100.00;103379.63;5002491;28;20088;-79
2021/10/07 06:21:14;;;;;;;7.82;4.57;;;10.90;99.90;;;10.08;100.00;103433.16;5010323;28;20615;-79
2021/10/07 06:23:41;;;;;;;12.82;4.25;;;11.90;99.90;;;11.19;100.00;103622.69;4995341;28;20063;-81
2021/10/07 06:26:09;;;;;;;4.50;2.83;;;13.30;99.90;;;12.73;100.00;103512.47;4991843;28;20026;-80
2021/10/07 06:28:38;;;;;;;5.32;2.15;;;14.00;99.90;;;13.05;94.09;103355.16;5012776;28;20029;-80
2021/10/07 06:31:05;;;;;;;4.05;1.90;;;15.10;99.90;;;13.83;90.54;103408.59;4986346;28;20059;-80
2021/10/07 06:33:31;;;;;;;5.32;1.70;;;16.10;99.90;;;14.80;80.19;103392.63;4995567;28;20040;-80
2021/10/07 06:35:58;;;;;;;3.42;1.70;;;17.20;99.90;;;15.49;75.85;103421.06;5011600;28;20017;-80
2021/10/07 06:38:28;;;;;;;4.03;1.70;;;18.40;99.90;;;16.60;72.32;103488.16;5007639;28;20144;-80
2021/10/07 06:40:55;;;;;;;2.22;1.40;;;19.10;99.90;;;17.09;66.06;103450.41;5023318;28;20060;-82
2021/10/07 06:43:21;;;;;;;3.60;1.77;;;19.40;99.90;;;17.94;63.34;104208.31;5033985;28;20041;-81
2021/10/07 06:45:47;;;;;;;7.00;3.22;;;20.00;99.90;;;18.07;59.50;103475.66;5017440;28;20477;-81
2021/10/07 06:48:13;;;;;;;6.25;3.00;;;20.10;99.90;;;17.67;62.50;103309.09;4994498;28;20033;-81
2021/10/07 06:50:42;;;;;;;11.90;3.38;;;20.60;99.90;;;18.02;63.78;103379.84;4997222;28;20060;-81
2021/10/07 06:53:11;;;;;;;8.10;2.75;;;20.70;99.90;;;18.79;60.03;103336.94;5003665;28;20036;-82
2021/10/07 06:55:39;;;;;;;5.60;3.22;;;21.70;99.90;;;19.17;60.20;103331.84;4995180;28;20035;-81
2021/10/07 06:58:08;;;;;;;3.15;2.45;;;21.90;99.90;;;19.81;56.96;103313.06;5033837;28;20033;-81
2021/10/07 07:00:42;;;;;;;3.67;1.85;;;22.40;99.90;;;20.41;54.39;103350.44;5026957;28;20336;-81
2021/10/07 07:03:08;;;;;;;2.97;1.63;;;22.50;99.90;;;20.47;53.15;103317.16;5006234;28;20086;-81
2021/10/07 07:05:34;;;;;;;2.38;1.30;;;21.60;99.90;;;20.63;53.24;103315.53;5000470;28;20053;-80
2021/10/07 07:08:00;;;;;;;2.28;1.70;;;21.50;99.90;;;20.74;54.15;103328.41;5008275;28;20153;-80
2021/10/07 07:10:32;;;;;;;3.33;2.25;;;21.80;99.90;;;20.80;52.53;103258.50;5004622;28;20027;-81
2021/10/07 07:13:03;;;;;;;6.10;3.08;;;21.00;99.90;;;20.05;54.12;103203.25;5000080;28;20034;-80
2021/10/07 07:15:29;;;;;;;5.55;2.40;;;20.30;99.90;;;19.92;53.95;103167.34;4970753;28;20026;-80
2021/10/07 07:17:55;;;;;;;3.47;2.00;;;20.50;99.90;;;20.29;57.53;103226.13;4930463;28;20030;-81
2021/10/07 07:20:23;;;;;;;5.93;2.13;;;22.00;99.90;;;21.55;51.35;103325.28;4974174;28;20087;-81
2021/10/07 07:22:50;;;;;;;4.95;2.40;;;21.90;99.90;;;21.79;50.75;103506.38;4969255;28;20504;-80
2021/10/07 07:25:17;;;;;;;4.80;2.25;;;22.30;99.90;;;21.95;51.97;103283.78;5031174;28;20039;-82
2021/10/07 07:27:45;;;;;;;3.75;2.40;;;23.30;99.90;;;22.03;53.22;103281.56;5034126;28;20441;-81
2021/10/07 07:30:14;;;;;;;5.80;2.28;;;24.70;99.90;;;22.48;51.44;103427.63;4988555;28;21033;-82
2021/10/07 07:32:41;;;;;;;2.67;2.00;;;25.50;99.90;;;23.22;51.07;103454.88;5003843;28;20075;-81
2021/10/07 07:35:08;;;;;;;4.15;2.10;;;26.20;99.20;;;23.62;49.59;103415.78;4939831;28;20029;-81
2021/10/07 07:37:34;;;;;;;6.25;2.42;;;26.80;97.80;;;24.16;48.02;103366.78;5007997;28;20040;-81
2021/10/07 07:40:00;;;;;;;2.80;2.05;;;26.80;97.70;;;24.32;46.93;103337.94;4990644;28;20515;-81
2021/10/07 07:42:31;;;;;;;3.92;2.75;;;27.10;95.60;;;23.74;47.46;103285.06;4986972;28;20053;-80
2021/10/07 07:44:57;;;;;;;3.70;2.60;;;26.60;95.90;;;23.33;48.92;103208.69;4969401;28;20039;-81
2021/10/07 07:47:23;;;;;;;3.33;2.30;;;26.50;96.30;;;23.55;48.73;103237.81;4979234;28;20036;-81
2021/10/07 07:49:49;;;;;;;4.05;2.40;;;26.50;96.90;;;24.18;47.66;103261.72;4994713;28;20041;-81
2021/10/07 07:52:16;;;;;;;4.03;2.45;;;26.50;96.40;;;24.22;46.93;103214.78;4996630;28;20086;-81
2021/10/07 07:54:42;;;;;;;3.03;2.30;;;26.60;96.20;;;24.36;46.05;103153.69;5017817;28;20065;-81
2021/10/07 07:57:11;;;;;;;4.00;1.92;;;25.60;97.80;;;23.85;49.41;103244.94;5021619;28;20454;-82
2021/10/07 07:59:37;;;;;;;2.80;1.90;;;26.00;97.30;;;24.43;48.43;103202.59;5024088;28;20035;-81
2021/10/07 08:02:03;;;;;;;4.95;1.90;;;26.20;98.00;;;24.93;47.05;103194.78;4999956;28;20435;-82
2021/10/07 08:04:29;;;;;;;3.42;2.30;;;27.20;96.80;;;25.27;47.47;103204.13;4988072;28;20604;-81
2021/10/07 08:06:55;;;;;;;4.45;2.22;;;27.80;96.00;;;26.03;44.91;103196.03;5016202;28;20941;-81
2021/10/07 08:09:23;;;;;;;4.45;2.30;;;28.50;94.70;;;26.48;43.74;103224.16;5028958;28;20022;-81
2021/10/07 08:11:53;;;;;;;4.75;2.15;;;28.80;94.70;;;26.05;45.46;103167.06;5022751;28;20067;-82
2021/10/07 08:14:19;;;;;;;5.10;1.80;;;28.90;94.10;;;26.03;45.10;103120.44;4990474;28;20040;-81
2021/10/07 08:16:45;;;;;;;2.85;1.80;;;29.00;93.30;;;26.87;43.87;103180.69;5003446;28;20488;-81
2021/10/07 08:19:11;;;;;;;3.00;1.90;;;29.10;92.90;;;26.37;44.72;103107.91;4983844;28;20024;-81
2021/10/07 08:21:41;;;;;;;3.72;2.17;;;28.80;93.30;;;27.07;41.76;103128.63;4969160;28;20030;-81
2021/10/07 08:24:10;;;;;;;3.30;1.90;;;28.00;92.90;;;27.07;42.19;103109.69;4989157;28;20021;-82
2021/10/07 08:26:37;;;;;;;3.42;2.00;;;27.70;94.40;;;26.65;43.76;103052.63;5018539;28;20383;-81
2021/10/07 08:29:03;;;;;;;4.13;2.08;;;28.20;93.90;;;27.17;43.25;103096.28;4985980;28;20040;-81
2021/10/07 08:31:29;;;;;;;4.68;2.00;;;28.20;93.50;;;27.76;40.72;103433.50;5001481;28;20040;-81
2021/10/07 08:34:03;;;;;;;2.67;1.70;;;28.20;92.90;;;28.83;38.84;103457.50;4983039;28;20524;-82
2021/10/07 08:36:29;;;;;;;3.58;1.70;;;28.10;93.80;;;28.01;41.31;103272.69;5004336;28;20029;-81
2021/10/07 08:38:55;;;;;;;2.30;1.83;;;28.30;94.40;;;28.04;41.52;103184.94;5003962;28;20041;-81
2021/10/07 08:41:21;;;;;;;3.65;2.17;;;28.40;94.40;;;28.84;38.75;103188.03;5020670;28;20032;-81
2021/10/07 08:43:52;;;;;;;4.10;1.90;;;27.70;93.80;;;28.34;39.95;103127.31;5014422;28;20037;-81
2021/10/07 08:46:20;;;;;;;4.18;1.88;;;27.60;94.40;;;27.88;41.22;103075.19;5021983;28;20107;-81
2021/10/07 08:48:47;;;;;;;3.28;1.90;;;27.50;94.80;;;27.87;41.50;103062.66;4956646;28;20036;-81
2021/10/07 08:51:14;;;;;;;3.28;2.05;;;28.10;94.20;;;27.97;40.91;103044.63;5024853;28;20110;-81
2021/10/07 08:53:40;;;;;;;3.97;1.98;;;28.10;94.20;;;27.75;41.50;103002.25;4980393;28;20416;-81
2021/10/07 08:56:09;;;;;;;3.88;1.67;;;28.20;92.20;;;27.14;41.70;102948.66;4983180;28;20052;-83
2021/10/07 08:58:35;;;;;;;3.85;1.60;;;28.00;92.90;;;27.79;41.38;103008.25;4997648;28;20029;-81
2021/10/07 09:01:35;;;;;;;2.55;1.35;;;27.70;94.30;;;27.53;38.43;102900.38;5001712;28;24773;-80
2021/10/07 09:04:30;;;;;;;2.42;1.48;;;26.60;94.10;;;27.42;40.15;102919.34;4979574;28;20054;-81
2021/10/07 09:07:34;;;;;;;3.25;1.48;;;26.30;94.90;;;27.01;41.88;102893.91;4957380;28;20057;-80
2021/10/07 09:10:11;;;;;;;4.15;1.83;;;25.90;95.80;;;26.96;42.95;102861.84;4931088;28;20064;-80
2021/10/07 09:12:38;;;;;;;3.90;1.75;;;25.80;97.00;;;26.21;45.17;102810.38;4963527;28;20032;-81
2021/10/07 09:15:35;;;;;;;2.50;1.55;;;25.60;97.60;;;25.96;45.26;102764.63;4976210;28;20048;-82
2021/10/07 09:18:35;;;;;;;3.45;1.30;;;25.40;97.70;;;26.53;43.47;102807.75;4976096;28;20036;-81
2021/10/07 09:21:16;;;;;;;2.45;1.60;;;25.70;97.30;;;25.05;48.65;102695.28;4986368;28;20500;-81
2021/10/07 09:23:54;;;;;;;2.60;1.42;;;25.40;99.10;;;24.23;49.46;102635.94;4971527;28;20049;-79
2021/10/07 09:26:49;;;;;;;4.72;1.42;;;25.30;97.70;;;23.34;52.09;102578.72;4968918;28;20045;-79
2021/10/07 09:30:01;;;;;;;4.05;1.55;;;25.00;98.70;;;22.45;54.17;102525.00;4974387;28;20037;-79
2021/10/07 09:32:47;;;;;;;4.22;1.45;;;23.80;99.20;;;21.75;56.10;102483.19;4974201;28;20098;-78
2021/10/07 09:35:37;;;;;;;2.65;1.30;;;23.70;99.90;;;20.36;59.67;102423.22;4984628;28;20035;-78
2021/10/07 09:38:19;;;;;;;2.92;1.55;;;21.60;99.90;;;19.79;62.02;102390.06;4997994;28;20447;-78
2021/10/07 09:41:39;;;;;;;4.25;1.45;;;21.70;99.90;;;19.10;62.76;102369.16;4993587;28;20094;-79
2021/10/07 09:44:08;;;;;;;5.93;1.27;;;20.50;99.90;;;18.80;64.84;102440.13;4980959;28;20584;-79
2021/10/07 09:47:01;;;;;;;2.80;1.65;;;20.10;99.90;;;18.86;64.59;102452.31;4979563;28;20040;-78
2021/10/07 09:49:41;;;;;;;4.22;1.60;;;19.80;99.90;;;18.15;66.84;102397.34;4991858;28;20036;-78
2021/10/07 09:52:24;;;;;;;3.80;1.70;;;19.30;99.90;;;18.32;67.69;102422.25;4980183;28;20032;-79
2021/10/07 09:55:20;;;;;;;7.28;2.00;;;19.20;99.90;;;17.43;68.73;102332.56;4980245;28;20032;-78
2021/10/07 09:58:18;;;;;;;3.42;1.58;;;18.90;99.90;;;17.30;72.51;102424.66;5000484;28;20037;-78
2021/10/07 10:01:16;;;;;;;5.90;1.65;;;18.50;99.90;;;17.43;71.35;102416.94;4966370;28;20083;-78
2021/10/07 10:04:07;;;;;;;4.22;2.15;;;18.40;99.90;;;17.54;72.30;102429.72;4969223;28;20033;-78
2021/10/07 10:07:01;;;;;;;4.32;1.92;;;18.20;99.90;;;17.47;72.73;102425.63;4959435;28;20045;-78
2021/10/07 10:09:48;;;;;;;5.15;2.35;;;18.30;99.90;;;17.90;72.80;102459.00;4995255;28;20060;-79
2021/10/07 10:12:19;;;;;;;5.53;2.22;;;18.50;99.90;;;17.89;72.04;102443.13;4979851;28;20036;-79
2021/10/07 10:15:08;;;;;;;5.60;2.45;;;18.60;99.90;;;18.04;69.97;102458.34;4961853;28;20049;-79
2021/10/07 10:17:46;;;;;;;9.13;2.28;;;18.90;99.90;;;18.29;71.05;102462.41;4961074;28;20034;-79
2021/10/07 10:20:39;;;;;;;5.78;1.83;;;18.80;99.90;;;18.09;69.33;102466.09;4995485;28;20083;-79
2021/10/07 10:23:28;;;;;;;8.93;2.78;;;18.70;99.90;;;17.77;70.81;102456.06;4983735;28;20063;-79
2021/10/07 10:26:17;;;;;;;5.00;2.28;;;18.70;99.90;;;17.92;71.06;102497.09;5016000;28;20036;-79
2021/10/07 10:29:01;;;;;;;5.38;3.03;;;18.60;99.90;;;17.66;69.88;102453.06;5002654;28;20033;-79
2021/10/07 10:31:48;;;;;;;7.03;3.05;;;18.40;99.90;;;17.43;70.94;102438.22;4980109;28;20408;-79
2021/10/07 10:34:23;;;;;;;6.05;2.92;;;18.30;99.90;;;17.36;72.27;102439.44;5000643;28;20052;-79